Briefing drone pour Saint-apollinaire

Rechercher une autre localisation

Conditions de vol :


Nous sommes le : Dimanche 19 septembre 2021
Il est 11:39 UTC (13:39 LT)

Lever de soleil : 04:56 UTC (06:56 LT)
Coucher de soleil : 18:10 UTC (20:10 LT)

Météo

L'essentiel des conditions de vol

VIGILANCE MÉTÉO FRANCE - Côte-dOr (21)
Vigilance Jaune : Pluie-inondation
CARTES DES FRONTS
METAR de LFSD
LFSD 191130Z AUTO 19006KT 160V220 9999 -RA SCT009 BKN047 BKN062 15/13 Q1015

Date d'émission: 19/09/2021
Heure d'émission: 11:30 UTC
Vent: 190° (variable du 160° au 220°) pour 6 KT (11 km/h)
Visibilité horizontale: > 10 km
Plafond :
- Nuages épars à 900ft (274m)
- Nuages morcelés à 4700ft (1433m)
- Nuages morcelés à 6200ft (1890m)
Température: 15 °C
Point de rosée: 13 °C
Humidité: 88%
Pression (QNH): 1015 hPa
Conditions: Faible pluie
TAF de LFSD
LFSD 010600Z 0100/0124 CNL

Conditions prévues :

Heure d'émission : Bulletin éffectué le 01 à 00:00 UTC
Prévision : Valide du 01 a 00:00 UTC au 01 a 23:59 UTC
Nuages : à 0ft (0 m)
WEBCAM POUR SAINT-APOLLINAIRE

Réglementation

Voler en sécurité

CARTES AERONAUTIQUE 1/500.000
CARTES VAC (LFSD)
SUP AIP




Chargement des AIP...
NOTAM (SAINT-APOLLINAIRE + Terrain à proximité / FIR )




Chargement des NOTAMS...
CONTACT PREFECTURE 21
Côte-dOr (21) : pref-drone@cote-dor.gouv.fr


Avertissement : Les données mises à disposition sont indicatives. Oxygène Drone ne pourra être tenu responsable de dégâts causés aux biens et aux personnes.